createdAt,value
2022-11-17T00:00:49.012Z,99558.53
2022-11-17T00:03:18.650Z,99559.44
2022-11-17T00:05:46.868Z,99556.81
2022-11-17T00:08:15.447Z,99550.53
2022-11-17T00:10:44.367Z,99543.59
2022-11-17T00:13:31.291Z,99544.47
2022-11-17T00:15:59.527Z,99538.44
2022-11-17T00:18:45.719Z,99529.75
2022-11-17T00:21:21.464Z,99513.22
2022-11-17T00:23:50.575Z,99513.22
2022-11-17T00:26:21.397Z,99520.22
2022-11-17T00:28:52.806Z,99512.38
2022-11-17T00:31:39.037Z,99513.22
2022-11-17T00:34:10.957Z,99508.91
2022-11-17T00:36:42.209Z,99482.75
2022-11-17T00:39:11.424Z,99479.28
2022-11-17T00:41:40.231Z,99478.41
2022-11-17T00:44:09.951Z,99466.22
2022-11-17T00:46:39.432Z,99470.56
2022-11-17T00:49:10.337Z,99466.22
2022-11-17T00:51:39.696Z,99464.50
2022-11-17T00:54:11.040Z,99463.59
2022-11-17T00:56:39.665Z,99464.50
2022-11-17T00:59:07.898Z,99447.97
2022-11-17T01:01:36.560Z,99442.72
2022-11-17T01:04:06.054Z,99431.44
2022-11-17T01:06:39.465Z,99427.06
2022-11-17T01:09:14.122Z,99431.47
2022-11-17T01:11:43.339Z,99438.50
2022-11-17T01:14:14.830Z,99418.44
2022-11-17T01:16:43.158Z,99416.75
2022-11-17T01:19:13.884Z,99428.06
2022-11-17T01:21:43.744Z,99419.38
2022-11-17T01:24:13.353Z,99405.47
2022-11-17T01:26:42.432Z,99400.25
2022-11-17T01:29:13.594Z,99402.00
2022-11-17T01:31:44.407Z,99400.31
2022-11-17T01:34:13.659Z,99395.94
2022-11-17T01:37:02.677Z,99382.91
2022-11-17T01:39:32.304Z,99375.94
2022-11-17T01:42:06.607Z,99362.03
2022-11-17T01:45:04.027Z,99358.63
2022-11-17T01:47:44.252Z,99356.88
2022-11-17T01:50:28.838Z,99349.03
2022-11-17T01:53:01.153Z,99351.66
2022-11-17T01:55:35.834Z,99345.56
2022-11-17T01:58:10.722Z,99337.72
2022-11-17T02:00:39.059Z,99330.75
2022-11-17T02:03:08.097Z,99328.13
2022-11-17T02:05:48.653Z,99314.25
2022-11-17T02:08:19.841Z,99315.09
2022-11-17T02:10:51.945Z,99308.13
2022-11-17T02:13:21.374Z,99290.69
2022-11-17T02:15:49.977Z,99289.81
2022-11-17T02:18:19.160Z,99283.69
2022-11-17T02:21:11.385Z,99287.22
2022-11-17T02:24:30.203Z,99277.69
2022-11-17T02:27:49.676Z,99283.75
2022-11-17T02:30:20.834Z,99282.88
2022-11-17T02:33:03.147Z,99272.47
2022-11-17T02:35:42.031Z,99275.84
2022-11-17T02:38:24.969Z,99268.91
2022-11-17T02:41:05.953Z,99268.00
2022-11-17T02:44:01.258Z,99266.28
2022-11-17T02:46:34.756Z,99267.13
2022-11-17T02:49:09.539Z,99251.44
2022-11-17T02:51:39.457Z,99253.16
2022-11-17T02:54:08.905Z,99257.50
2022-11-17T02:56:42.901Z,99255.75
2022-11-17T02:59:16.766Z,99249.66
2022-11-17T03:02:22.394Z,99252.28
2022-11-17T03:05:07.007Z,99247.06
2022-11-17T03:07:58.062Z,99248.84
2022-11-17T03:10:39.274Z,99246.25
2022-11-17T03:13:19.803Z,99252.41
2022-11-17T03:15:56.128Z,99248.94
2022-11-17T03:18:31.428Z,99228.94
2022-11-17T03:21:12.411Z,99224.66
2022-11-17T03:23:47.017Z,99227.28
2022-11-17T03:26:18.757Z,99218.66
2022-11-17T03:28:48.339Z,99214.31
2022-11-17T03:31:20.473Z,99217.81
2022-11-17T03:33:51.090Z,99212.63
2022-11-17T03:36:24.332Z,99209.19
2022-11-17T03:39:01.749Z,99198.78
2022-11-17T03:41:34.078Z,99203.19
2022-11-17T03:44:05.163Z,99195.41
2022-11-17T03:46:38.260Z,99197.19
2022-11-17T03:49:19.052Z,99190.28
2022-11-17T03:51:47.528Z,99193.81
2022-11-17T03:54:16.766Z,99195.63
2022-11-17T03:56:55.618Z,99189.59
2022-11-17T03:59:28.427Z,99185.31
2022-11-17T04:01:58.483Z,99184.47
2022-11-17T04:04:46.840Z,99174.97
2022-11-17T04:07:15.164Z,99163.75
2022-11-17T04:09:43.352Z,99161.22
2022-11-17T04:12:29.177Z,99167.34
2022-11-17T04:15:14.916Z,99155.22
2022-11-17T04:17:44.645Z,99153.63
2022-11-17T04:20:13.125Z,99157.19
2022-11-17T04:22:41.384Z,99159.88
2022-11-17T04:25:30.457Z,99144.25
2022-11-17T04:28:16.474Z,99126.91
2022-11-17T04:30:44.817Z,99127.00
2022-11-17T04:33:14.469Z,99118.28
2022-11-17T04:35:42.692Z,99114.88
2022-11-17T04:38:12.422Z,99101.84
2022-11-17T04:41:00.772Z,99096.69
2022-11-17T04:43:29.299Z,99112.38
2022-11-17T04:46:00.729Z,99104.56
2022-11-17T04:48:30.395Z,99082.78
2022-11-17T04:50:59.577Z,99096.75
2022-11-17T04:53:28.553Z,99091.53
2022-11-17T04:56:01.024Z,99077.63
2022-11-17T04:58:29.841Z,99073.28
2022-11-17T05:01:12.261Z,99076.81
2022-11-17T05:03:44.828Z,99071.59
2022-11-17T05:06:15.760Z,99065.59
2022-11-17T05:08:45.686Z,99076.88
2022-11-17T05:11:34.028Z,99065.59
2022-11-17T05:14:03.532Z,99077.84
2022-11-17T05:16:49.274Z,99049.16
2022-11-17T05:19:21.592Z,99063.09
2022-11-17T05:21:50.435Z,99063.09
2022-11-17T05:24:18.420Z,99074.41
2022-11-17T05:26:48.901Z,99069.19
2022-11-17T05:29:20.431Z,99064.84
2022-11-17T05:31:49.852Z,99062.22
2022-11-17T05:34:20.154Z,99059.63
2022-11-17T05:36:48.471Z,99053.50
2022-11-17T05:39:17.320Z,99054.38
2022-11-17T05:41:46.612Z,99042.22
2022-11-17T05:44:15.104Z,99056.09
2022-11-17T05:46:43.381Z,99048.28
2022-11-17T05:49:11.579Z,99066.53
2022-11-17T05:51:41.262Z,99049.13
2022-11-17T05:54:09.666Z,99047.41
2022-11-17T05:56:41.616Z,99042.19
2022-11-17T05:59:27.531Z,99032.69
2022-11-17T06:02:01.519Z,99019.72
2022-11-17T06:04:30.383Z,99020.59
2022-11-17T06:07:02.173Z,99031.00
2022-11-17T06:09:35.458Z,99024.97
2022-11-17T06:12:06.228Z,99018.06
2022-11-17T06:14:35.498Z,99024.16
2022-11-17T06:17:09.508Z,99027.66
2022-11-17T06:19:41.558Z,99045.94
2022-11-17T06:22:13.318Z,99019.88
2022-11-17T06:24:43.467Z,99033.78
2022-11-17T06:27:12.436Z,99026.84
2022-11-17T06:29:44.294Z,99026.00
2022-11-17T06:32:16.261Z,99033.00
2022-11-17T06:34:49.164Z,99022.59
2022-11-17T06:37:21.683Z,99019.97
2022-11-17T06:39:49.985Z,99029.53
2022-11-17T06:42:18.189Z,99019.97
2022-11-17T06:44:46.423Z,99030.38
2022-11-17T06:47:14.759Z,99018.22
2022-11-17T06:49:43.015Z,99017.38
2022-11-17T06:52:11.705Z,99023.50
2022-11-17T06:54:41.362Z,99019.97
2022-11-17T06:57:09.651Z,99006.09
2022-11-17T06:59:37.932Z,99023.50
2022-11-17T07:02:06.262Z,99013.97
2022-11-17T07:04:34.693Z,99015.69
2022-11-17T07:07:03.125Z,99006.16
2022-11-17T07:09:31.396Z,99012.22
2022-11-17T07:12:01.075Z,99007.84
2022-11-17T07:14:29.372Z,99007.00
2022-11-17T07:16:57.748Z,99004.41
2022-11-17T07:19:26.102Z,98997.50
2022-11-17T07:21:54.423Z,99003.56
2022-11-17T07:24:22.675Z,99004.41
2022-11-17T07:26:50.887Z,99005.22
2022-11-17T07:29:20.536Z,99014.75
2022-11-17T07:31:48.835Z,98996.50
2022-11-17T07:34:17.095Z,98996.47
2022-11-17T07:36:45.402Z,98997.34
2022-11-17T07:39:20.999Z,99000.78
2022-11-17T07:41:50.065Z,98991.19
2022-11-17T07:44:18.388Z,99001.63
2022-11-17T07:46:48.050Z,98998.16
2022-11-17T07:49:17.074Z,98995.50
2022-11-17T07:51:45.329Z,98994.59
2022-11-17T07:54:13.660Z,99002.41
2022-11-17T07:56:41.932Z,99003.94
2022-11-17T07:59:10.402Z,98992.66
2022-11-17T08:01:38.871Z,98998.72
2022-11-17T08:04:08.666Z,98992.66
2022-11-17T08:06:38.078Z,99006.59
2022-11-17T08:09:07.250Z,99003.16
2022-11-17T08:11:35.612Z,98996.25
2022-11-17T08:14:03.932Z,99000.56
2022-11-17T08:16:32.234Z,99005.78
2022-11-17T08:19:00.718Z,98996.25
2022-11-17T08:21:30.443Z,99007.53
2022-11-17T08:24:00.232Z,99011.91
2022-11-17T08:26:28.647Z,99015.34
2022-11-17T08:28:59.016Z,99011.88
2022-11-17T08:31:27.638Z,99010.13
2022-11-17T08:33:55.930Z,99004.00
2022-11-17T08:36:24.438Z,98991.78
2022-11-17T08:38:54.835Z,99000.47
2022-11-17T08:41:23.950Z,99000.38
2022-11-17T08:43:52.362Z,99002.09
2022-11-17T08:46:20.596Z,98986.41
2022-11-17T08:48:52.268Z,98985.50
2022-11-17T08:51:23.909Z,98976.81
2022-11-17T08:53:53.562Z,98991.56
2022-11-17T08:56:21.865Z,98982.88
2022-11-17T08:58:50.085Z,98989.78
2022-11-17T09:01:18.716Z,98972.34
2022-11-17T09:03:48.767Z,98990.59
2022-11-17T09:06:20.190Z,98988.09
2022-11-17T09:08:48.845Z,98992.38
2022-11-17T09:11:18.746Z,98988.91
2022-11-17T09:13:47.336Z,98994.16
2022-11-17T09:16:17.255Z,98990.69
2022-11-17T09:18:45.643Z,98999.47
2022-11-17T09:21:16.363Z,99004.69
2022-11-17T09:23:44.847Z,98998.69
2022-11-17T09:26:16.306Z,98999.56
2022-11-17T09:28:46.235Z,99002.22
2022-11-17T09:31:19.557Z,99010.91
2022-11-17T09:33:48.145Z,99023.09
2022-11-17T09:36:17.816Z,99016.97
2022-11-17T09:38:46.775Z,99000.47
2022-11-17T09:41:26.507Z,99018.72
2022-11-17T09:44:07.604Z,99014.38
2022-11-17T09:46:54.021Z,99019.59
2022-11-17T09:49:39.621Z,99016.06
2022-11-17T09:52:18.967Z,99029.91
2022-11-17T09:54:54.840Z,99009.91
2022-11-17T09:57:31.666Z,99009.00
2022-11-17T10:00:15.655Z,99008.13
2022-11-17T10:02:44.756Z,99022.84
2022-11-17T10:05:18.019Z,99002.78
2022-11-17T10:07:50.792Z,99008.84
2022-11-17T10:10:25.010Z,98995.75
2022-11-17T10:12:58.665Z,99001.75
2022-11-17T10:15:34.196Z,99010.50
2022-11-17T10:18:02.549Z,99011.34
2022-11-17T10:20:30.927Z,99006.13
2022-11-17T10:22:59.738Z,99007.84
2022-11-17T10:25:40.000Z,99016.56
2022-11-17T10:28:12.832Z,99013.19
2022-11-17T10:30:55.204Z,99014.97
2022-11-17T10:33:37.660Z,99026.28
2022-11-17T10:36:16.298Z,99029.75
2022-11-17T10:38:46.646Z,99021.88
2022-11-17T10:41:19.786Z,99033.13
2022-11-17T10:43:58.657Z,99030.53
2022-11-17T10:46:34.272Z,99038.34
2022-11-17T10:49:26.443Z,99024.47
2022-11-17T10:52:07.709Z,99028.78
2022-11-17T10:54:36.094Z,99033.13
2022-11-17T10:57:09.562Z,99025.16
2022-11-17T10:59:47.242Z,99026.75
2022-11-17T11:02:30.516Z,99031.97
2022-11-17T11:05:12.258Z,99046.78
2022-11-17T11:07:41.246Z,99040.78
2022-11-17T11:10:18.862Z,99033.84
2022-11-17T11:12:51.857Z,99046.09
2022-11-17T11:15:23.079Z,99052.19
2022-11-17T11:17:53.928Z,99052.25
2022-11-17T11:20:37.426Z,99066.16
2022-11-17T11:23:16.850Z,99044.41
2022-11-17T11:25:52.828Z,99053.00
2022-11-17T11:28:42.549Z,99051.25
2022-11-17T11:31:24.547Z,99060.84
2022-11-17T11:34:03.774Z,99046.97
2022-11-17T11:36:38.040Z,99039.97
2022-11-17T11:39:17.753Z,99046.88
2022-11-17T11:42:16.599Z,99041.66
2022-11-17T11:45:15.077Z,99048.63
2022-11-17T11:48:10.868Z,99048.63
2022-11-17T11:50:50.479Z,99052.91
2022-11-17T11:53:33.567Z,99038.13
2022-11-17T11:56:18.878Z,99055.53
2022-11-17T11:58:54.634Z,99060.75
2022-11-17T12:01:25.036Z,99063.38
2022-11-17T12:04:09.101Z,99069.53
2022-11-17T12:06:53.912Z,99071.31
2022-11-17T12:09:49.499Z,99064.44
2022-11-17T12:12:21.876Z,99067.06
2022-11-17T12:15:33.913Z,99061.06
2022-11-17T12:18:07.086Z,99072.34
2022-11-17T12:20:58.063Z,99082.84
2022-11-17T12:24:03.288Z,99070.66
2022-11-17T12:26:34.124Z,99066.34
2022-11-17T12:29:30.904Z,99065.50
2022-11-17T12:32:01.830Z,99066.28
2022-11-17T12:34:33.722Z,99059.25
2022-11-17T12:37:26.472Z,99063.56
2022-11-17T12:40:08.933Z,99080.91
2022-11-17T12:42:38.317Z,99060.84
2022-11-17T12:45:12.702Z,99068.56
2022-11-17T12:47:46.190Z,99073.72
2022-11-17T12:50:49.783Z,99086.84
2022-11-17T12:53:34.431Z,99092.06
2022-11-17T12:56:42.962Z,99098.97
2022-11-17T12:59:56.211Z,99097.22
2022-11-17T13:02:49.054Z,99090.22
2022-11-17T13:05:21.959Z,99100.59
2022-11-17T13:07:50.737Z,99098.81
2022-11-17T13:10:29.546Z,99103.97
2022-11-17T13:13:18.523Z,99095.22
2022-11-17T13:15:51.260Z,99110.88
2022-11-17T13:18:31.689Z,99104.75
2022-11-17T13:21:01.080Z,99114.31
2022-11-17T13:23:31.399Z,99116.06
2022-11-17T13:26:12.063Z,99106.50
2022-11-17T13:28:43.709Z,99103.88
2022-11-17T13:31:18.734Z,99092.59
2022-11-17T13:33:58.508Z,99090.00
2022-11-17T13:36:27.395Z,99097.81
2022-11-17T13:39:00.569Z,99098.66
2022-11-17T13:41:33.992Z,99106.50
2022-11-17T13:44:04.066Z,99099.50
2022-11-17T13:46:32.329Z,99096.88
2022-11-17T13:49:00.722Z,99095.09
2022-11-17T13:51:38.566Z,99097.75
2022-11-17T13:54:19.912Z,99105.63
2022-11-17T13:56:53.815Z,99115.16
2022-11-17T13:59:27.906Z,99123.84
2022-11-17T14:02:25.369Z,99129.03
2022-11-17T14:05:23.944Z,99133.41
2022-11-17T14:07:53.984Z,99132.50
2022-11-17T14:10:32.085Z,99136.00
2022-11-17T14:13:29.932Z,99133.50
2022-11-17T14:16:01.952Z,99136.97
2022-11-17T14:18:38.005Z,99128.38
2022-11-17T14:21:13.615Z,99137.06
2022-11-17T14:23:43.172Z,99137.97
2022-11-17T14:26:20.729Z,99136.22
2022-11-17T14:28:50.622Z,99130.16
2022-11-17T14:31:20.675Z,99133.66
2022-11-17T14:33:50.527Z,99142.38
2022-11-17T14:36:19.412Z,99135.38
2022-11-17T14:38:48.646Z,99128.44
2022-11-17T14:41:17.945Z,99142.38
2022-11-17T14:43:46.359Z,99151.03
2022-11-17T14:46:24.429Z,99157.13
2022-11-17T14:48:53.992Z,99157.13
2022-11-17T14:51:22.780Z,99150.19
2022-11-17T14:53:51.232Z,99154.53
2022-11-17T14:56:22.759Z,99151.03
2022-11-17T14:58:56.721Z,99155.41
2022-11-17T15:01:30.579Z,99171.97
2022-11-17T15:04:20.666Z,99166.75
2022-11-17T15:06:51.833Z,99168.53
2022-11-17T15:09:20.648Z,99166.78
2022-11-17T15:11:49.065Z,99171.13
2022-11-17T15:14:17.802Z,99182.44
2022-11-17T15:16:47.870Z,99187.66
2022-11-17T15:19:16.159Z,99189.41
2022-11-17T15:21:44.505Z,99188.56
2022-11-17T15:24:13.391Z,99187.69
2022-11-17T15:26:42.024Z,99192.88
2022-11-17T15:29:15.974Z,99198.97
2022-11-17T15:31:44.768Z,99199.84
2022-11-17T15:34:19.885Z,99198.09
2022-11-17T15:36:49.040Z,99199.84
2022-11-17T15:39:18.003Z,99210.28
2022-11-17T15:41:46.769Z,99209.44
2022-11-17T15:44:15.577Z,99208.53
2022-11-17T15:46:47.354Z,99212.00
2022-11-17T15:49:18.003Z,99214.59
2022-11-17T15:51:46.722Z,99216.34
2022-11-17T15:54:20.337Z,99222.44
2022-11-17T15:56:49.434Z,99232.88
2022-11-17T15:59:18.137Z,99235.50
2022-11-17T16:01:46.692Z,99238.09
2022-11-17T16:04:17.373Z,99245.00
2022-11-17T16:06:47.118Z,99245.00
2022-11-17T16:09:17.314Z,99243.22
2022-11-17T16:11:46.234Z,99254.53
2022-11-17T16:14:15.248Z,99246.75
2022-11-17T16:16:43.850Z,99256.31
2022-11-17T16:19:12.222Z,99248.47
2022-11-17T16:21:41.829Z,99244.09
2022-11-17T16:24:12.749Z,99248.47
2022-11-17T16:26:41.040Z,99253.69
2022-11-17T16:29:09.990Z,99253.69
2022-11-17T16:31:39.723Z,99251.09
2022-11-17T16:34:12.830Z,99247.63
2022-11-17T16:36:44.349Z,99252.00
2022-11-17T16:39:16.703Z,99256.38
2022-11-17T16:41:46.482Z,99256.38
2022-11-17T16:44:17.671Z,99260.72
2022-11-17T16:46:48.428Z,99262.44
2022-11-17T16:49:19.642Z,99261.59
2022-11-17T16:51:51.277Z,99266.81
2022-11-17T16:54:20.198Z,99268.56
2022-11-17T16:56:49.322Z,99273.78
2022-11-17T16:59:17.877Z,99279.88
2022-11-17T17:01:47.505Z,99280.75
2022-11-17T17:04:15.833Z,99281.63
2022-11-17T17:06:46.301Z,99282.47
2022-11-17T17:09:17.887Z,99276.41
2022-11-17T17:11:47.888Z,99288.56
2022-11-17T17:14:17.256Z,99298.13
2022-11-17T17:16:45.580Z,99294.66
2022-11-17T17:19:16.386Z,99295.50
2022-11-17T17:21:46.596Z,99294.66
2022-11-17T17:24:16.307Z,99297.22
2022-11-17T17:26:45.421Z,99299.84
2022-11-17T17:29:15.048Z,99295.47
2022-11-17T17:31:43.754Z,99311.13
2022-11-17T17:34:13.893Z,99313.72
2022-11-17T17:36:43.015Z,99313.75
2022-11-17T17:39:19.786Z,99317.25
2022-11-17T17:41:50.200Z,99317.25
2022-11-17T17:44:24.438Z,99326.00
2022-11-17T17:46:53.488Z,99324.22
2022-11-17T17:49:21.838Z,99318.16
2022-11-17T17:51:50.314Z,99329.44
2022-11-17T17:54:24.081Z,99325.94
2022-11-17T17:56:52.720Z,99330.31
2022-11-17T17:59:21.204Z,99337.22
2022-11-17T18:01:49.692Z,99338.97
2022-11-17T18:04:17.986Z,99337.22
2022-11-17T18:06:48.275Z,99332.88
2022-11-17T18:09:20.445Z,99352.84
2022-11-17T18:11:51.172Z,99345.00
2022-11-17T18:14:24.368Z,99355.44
2022-11-17T18:16:53.929Z,99358.94
2022-11-17T18:19:26.857Z,99360.72
2022-11-17T18:21:56.695Z,99358.13
2022-11-17T18:24:26.644Z,99368.56
2022-11-17T18:26:54.822Z,99362.47
2022-11-17T18:29:23.071Z,99364.25
2022-11-17T18:31:51.268Z,99366.00
2022-11-17T18:34:22.104Z,99377.28
2022-11-17T18:36:51.484Z,99368.56
2022-11-17T18:39:21.343Z,99374.69
2022-11-17T18:41:51.080Z,99377.28
2022-11-17T18:44:20.474Z,99372.06
2022-11-17T18:46:48.837Z,99385.13
2022-11-17T18:49:17.540Z,99385.97
2022-11-17T18:51:46.268Z,99385.97
2022-11-17T18:54:14.787Z,99394.66
2022-11-17T18:56:44.473Z,99395.53
2022-11-17T18:59:14.965Z,99397.28
2022-11-17T19:01:44.255Z,99402.50
2022-11-17T19:04:14.827Z,99405.09
2022-11-17T19:06:43.166Z,99404.25
2022-11-17T19:09:12.547Z,99396.41
2022-11-17T19:11:41.225Z,99410.34
2022-11-17T19:14:09.919Z,99406.00
2022-11-17T19:16:44.346Z,99409.47
2022-11-17T19:19:15.200Z,99415.56
2022-11-17T19:21:44.640Z,99418.16
2022-11-17T19:24:13.180Z,99417.31
2022-11-17T19:26:42.802Z,99420.78
2022-11-17T19:29:17.224Z,99426.84
2022-11-17T19:31:48.602Z,99423.41
2022-11-17T19:34:17.316Z,99426.91
2022-11-17T19:36:45.836Z,99432.97
2022-11-17T19:39:15.569Z,99436.44
2022-11-17T19:41:45.227Z,99439.06
2022-11-17T19:44:13.877Z,99446.03
2022-11-17T19:46:43.276Z,99445.19
2022-11-17T19:49:14.287Z,99439.09
2022-11-17T19:51:42.926Z,99441.72
2022-11-17T19:54:13.450Z,99445.28
2022-11-17T19:56:41.894Z,99452.28
2022-11-17T19:59:15.589Z,99447.09
2022-11-17T20:01:45.091Z,99450.63
2022-11-17T20:04:14.927Z,99444.56
2022-11-17T20:06:43.230Z,99462.88
2022-11-17T20:09:13.900Z,99458.50
2022-11-17T20:11:43.134Z,99463.72
2022-11-17T20:14:11.461Z,99475.88
2022-11-17T20:16:39.655Z,99470.66
2022-11-17T20:19:07.980Z,99479.31
2022-11-17T20:21:37.572Z,99492.38
2022-11-17T20:24:06.373Z,99492.34
2022-11-17T20:26:36.293Z,99496.69
2022-11-17T20:29:04.610Z,99494.03
2022-11-17T20:31:36.345Z,99509.69
2022-11-17T20:34:06.402Z,99511.44
2022-11-17T20:36:37.372Z,99519.25
2022-11-17T20:39:07.802Z,99521.84
2022-11-17T20:41:36.538Z,99521.84
2022-11-17T20:44:05.603Z,99528.81
2022-11-17T20:46:33.886Z,99532.25
2022-11-17T20:49:02.396Z,99535.72
2022-11-17T20:51:30.638Z,99536.59
2022-11-17T20:54:00.259Z,99535.72
2022-11-17T20:56:30.363Z,99536.59
2022-11-17T20:58:58.614Z,99540.06
2022-11-17T21:01:26.983Z,99540.13
2022-11-17T21:03:55.237Z,99541.00
2022-11-17T21:06:23.989Z,99549.69
2022-11-17T21:08:52.866Z,99558.44
2022-11-17T21:11:42.144Z,99555.81
2022-11-17T21:14:12.499Z,99562.78
2022-11-17T21:16:44.335Z,99567.13
2022-11-17T21:19:13.083Z,99560.19
2022-11-17T21:21:41.568Z,99567.16
2022-11-17T21:24:11.428Z,99566.31
2022-11-17T21:26:41.184Z,99567.16
2022-11-17T21:29:09.491Z,99577.59
2022-11-17T21:31:37.947Z,99579.38
2022-11-17T21:34:08.231Z,99579.38
2022-11-17T21:36:37.243Z,99581.13
2022-11-17T21:39:05.563Z,99581.16
2022-11-17T21:41:37.817Z,99585.53
2022-11-17T21:44:07.463Z,99582.06
2022-11-17T21:46:36.268Z,99586.44
2022-11-17T21:49:04.914Z,99589.09
2022-11-17T21:51:38.238Z,99588.22
2022-11-17T21:54:09.765Z,99589.13
2022-11-17T21:56:38.448Z,99585.66
2022-11-17T21:59:12.628Z,99598.69
2022-11-17T22:01:41.609Z,99601.34
2022-11-17T22:04:11.388Z,99607.41
2022-11-17T22:06:40.314Z,99608.25
2022-11-17T22:09:09.177Z,99614.31
2022-11-17T22:11:38.771Z,99615.19
2022-11-17T22:14:11.765Z,99614.34
2022-11-17T22:16:42.742Z,99623.94
2022-11-17T22:19:12.434Z,99628.28
2022-11-17T22:21:41.313Z,99627.44
2022-11-17T22:24:12.031Z,99631.78
2022-11-17T22:26:42.333Z,99641.38
2022-11-17T22:29:14.501Z,99643.91
2022-11-17T22:31:43.220Z,99654.31
2022-11-17T22:34:11.588Z,99662.09
2022-11-17T22:36:39.825Z,99662.97
2022-11-17T22:39:09.280Z,99659.47
2022-11-17T22:41:37.977Z,99663.78
2022-11-17T22:44:07.392Z,99672.47
2022-11-17T22:46:36.998Z,99664.63
2022-11-17T22:49:05.188Z,99672.44
2022-11-17T22:51:51.658Z,99673.28
2022-11-17T22:54:19.866Z,99665.41
2022-11-17T22:56:48.240Z,99671.53
2022-11-17T22:59:16.888Z,99660.19
2022-11-17T23:01:48.289Z,99677.56
2022-11-17T23:04:17.548Z,99671.47
2022-11-17T23:06:46.488Z,99680.16
2022-11-17T23:09:14.836Z,99676.69
2022-11-17T23:11:44.089Z,99692.31
2022-11-17T23:14:14.841Z,99687.13
2022-11-17T23:16:43.889Z,99687.09
2022-11-17T23:19:16.232Z,99689.69
2022-11-17T23:21:44.839Z,99682.72
2022-11-17T23:24:14.856Z,99687.94
2022-11-17T23:26:44.126Z,99692.31
2022-11-17T23:29:12.620Z,99700.13
2022-11-17T23:31:44.134Z,99695.78
2022-11-17T23:34:14.675Z,99704.47
2022-11-17T23:36:42.905Z,99710.53
2022-11-17T23:39:11.503Z,99710.53
2022-11-17T23:41:39.761Z,99714.91
2022-11-17T23:44:09.206Z,99714.91
2022-11-17T23:46:37.385Z,99718.38
2022-11-17T23:49:05.802Z,99724.50
2022-11-17T23:51:36.751Z,99723.59
2022-11-17T23:54:05.298Z,99729.72
2022-11-17T23:56:34.667Z,99722.75
2022-11-17T23:59:03.532Z,99721.88
